Time;durP1;ratioP1;P1;durP2;ratioP2;P2;SDS_P1;SDS_P2;PMS_P1;PMS_P2;Temp;Humidity;BMP_temperature;BMP_pressure;BME280_temperature;BME280_humidity;BME280_pressure;Samples;Min_cycle;Max_cycle;Signal;HPM_P1;HPM_P2
2023/03/20 00:00:09;;;;;;;14.03;12.67;;;;;;;8.25;100.00;25003.97;5048437;28;20185;-59
2023/03/20 00:02:38;;;;;;;20.23;12.17;;;;;;;8.38;100.00;25651.66;5048304;28;20201;-58
2023/03/20 00:05:17;;;;;;;13.07;11.87;;;;;;;8.19;100.00;25001.19;5048597;28;20189;-58
2023/03/20 00:07:45;;;;;;;13.13;11.77;;;;;;;8.22;100.00;22117.28;5048310;28;20284;-58
2023/03/20 00:10:14;;;;;;;14.97;12.60;;;;;;;8.17;100.00;20833.75;5048483;28;20704;-61
2023/03/20 00:12:42;;;;;;;13.90;12.57;;;;;;;8.18;100.00;19873.53;5048224;28;20182;-58
2023/03/20 00:15:23;;;;;;;13.17;11.70;;;;;;;8.14;100.00;18911.59;5048505;28;20281;-59
2023/03/20 00:17:50;;;;;;;14.80;12.40;;;;;;;8.22;100.00;17313.97;5047878;28;20233;-59
2023/03/20 00:20:17;;;;;;;14.63;12.03;;;;;;;8.04;100.00;17947.78;5048123;28;20190;-60
2023/03/20 00:22:44;;;;;;;13.50;11.83;;;;;;;8.00;100.00;15388.06;5047938;28;20204;-58
2023/03/20 00:25:15;;;;;;;13.40;11.97;;;;;;;7.86;100.00;13466.56;5048073;28;20207;-59
2023/03/20 00:27:43;;;;;;;12.93;11.93;;;;;;;7.84;100.00;13146.63;5047930;28;20238;-58
2023/03/20 00:30:21;;;;;;;13.87;12.57;;;;;;;7.96;100.00;12830.50;5048310;28;20356;-59
2023/03/20 00:32:48;;;;;;;18.13;13.20;;;;;;;8.00;100.00;12512.00;5047919;28;20226;-59
2023/03/20 00:35:24;;;;;;;15.07;12.43;;;;;;;8.00;100.00;13150.88;5049520;28;20192;-58
2023/03/20 00:37:51;;;;;;;16.87;12.50;;;;;;;7.98;100.00;13469.81;5051349;28;20216;-58
2023/03/20 00:40:20;;;;;;;15.80;12.77;;;;;;;8.02;100.00;13471.03;5051381;28;20190;-59
2023/03/20 00:42:56;;;;;;;15.53;12.63;;;;;;;7.88;100.00;13786.56;5051663;28;20663;-59
2023/03/20 00:45:23;;;;;;;17.20;13.17;;;;;;;7.90;100.00;13787.09;5051229;28;20185;-59
2023/03/20 00:47:51;;;;;;;15.43;13.53;;;;;;;7.67;100.00;12503.81;5051271;28;20259;-59
2023/03/20 00:50:21;;;;;;;15.20;13.60;;;;;;;7.79;100.00;11548.97;5051205;28;20190;-58
2023/03/20 00:52:49;;;;;;;15.23;13.83;;;;;;;7.56;100.00;9629.59;5051125;28;20263;-58
2023/03/20 00:55:16;;;;;;;16.27;13.27;;;;;;;7.59;100.00;8036.00;5051117;28;20190;-58
2023/03/20 00:57:47;;;;;;;15.67;13.97;;;;;;;7.60;100.00;6442.59;5051283;28;20724;-59
2023/03/20 01:00:24;;;;;;;14.07;12.67;;;;;;;7.56;100.00;6442.06;5051243;28;20189;-59
2023/03/20 01:02:53;;;;;;;14.47;13.00;;;;;;;7.47;100.00;4529.84;5051380;28;20193;-58
2023/03/20 01:05:21;;;;;;;14.50;13.10;;;;;;;7.59;100.00;3257.88;5051031;28;20234;-59
2023/03/20 01:07:48;;;;;;;17.77;13.20;;;;;;;7.39;100.00;3255.84;5051280;28;20637;-58
2023/03/20 01:10:16;;;;;;;22.47;15.47;;;;;;;7.45;100.00;3256.41;5051213;28;20182;-58
2023/03/20 01:12:46;;;;;;;21.13;14.57;;;;;;;7.40;100.00;4210.72;5050878;28;20200;-58
2023/03/20 01:15:19;;;;;;;23.40;14.37;;;;;;;7.41;100.00;2301.56;5051116;28;20608;-59
2023/03/20 01:17:47;;;;;;;23.70;14.97;;;;;;;7.41;100.00;2619.69;5050694;28;20229;-59
2023/03/20 01:20:20;;;;;;;18.60;13.57;;;;;;;7.41;100.00;2619.69;5050690;28;20197;-58
2023/03/20 01:22:47;;;;;;;21.23;14.83;;;;;;;7.41;100.00;3256.00;5050741;28;20189;-59
2023/03/20 01:25:15;;;;;;;18.60;13.43;;;;;;;7.53;100.00;3257.31;5050999;28;20548;-59
2023/03/20 01:27:43;;;;;;;17.67;14.40;;;;;;;7.54;100.00;4212.38;5050914;28;20559;-59
2023/03/20 01:30:23;;;;;;;18.87;14.30;;;;;;;7.51;100.00;3893.69;5050587;28;20186;-59
2023/03/20 01:32:51;;;;;;;18.57;14.03;;;;;;;7.45;100.00;3893.00;5050833;28;20657;-58
2023/03/20 01:35:20;;;;;;;14.00;12.43;;;;;;;7.59;100.00;3576.19;5050809;28;20566;-59
2023/03/20 01:37:48;;;;;;;17.93;13.27;;;;;;;7.52;100.00;4530.47;5050709;28;20655;-59
2023/03/20 01:40:30;;;;;;;16.57;13.43;;;;;;;7.55;100.00;4530.84;5050385;28;20192;-58
2023/03/20 01:42:56;;;;;;;14.50;12.67;;;;;;;7.52;100.00;4848.94;5050397;28;20189;-58
2023/03/20 01:45:30;;;;;;;20.90;12.90;;;;;;;7.47;100.00;4529.91;5050328;28;20189;-58
2023/03/20 01:47:57;;;;;;;17.07;14.10;;;;;;;7.29;100.00;3254.81;5049921;28;20494;-59
2023/03/20 01:50:28;;;;;;;14.50;13.10;;;;;;;7.21;100.00;1663.81;5050560;28;20189;-58
2023/03/20 01:53:01;;;;;;;16.70;13.13;;;;;;;7.09;100.00;-243.88;5050559;28;20182;-58
2023/03/20 01:55:28;;;;;;;15.87;13.20;;;;;;;7.12;100.00;-1832.00;5050479;28;20189;-59
2023/03/20 01:57:57;;;;;;;16.63;13.47;;;;;;;7.17;100.00;-2467.00;5050382;28;20213;-60
2023/03/20 02:00:26;;;;;;;20.87;13.87;;;;;;;7.14;100.00;-2467.03;5050327;28;20197;-59
2023/03/20 02:02:53;;;;;;;15.47;13.40;;;;;;;7.15;100.00;-2149.50;5050537;28;20292;-57
2023/03/20 02:05:23;;;;;;;16.03;13.77;;;;;;;7.03;100.00;-1832.16;5050519;28;20190;-59
2023/03/20 02:08:00;;;;;;;20.03;13.83;;;;;;;6.75;100.00;-2784.75;5050432;28;20182;-58
2023/03/20 02:10:27;;;;;;;18.93;14.87;;;;;;;6.98;100.00;-3102.03;5050032;28;20628;-59
2023/03/20 02:12:55;;;;;;;18.67;15.00;;;;;;;6.93;100.00;-3419.34;5050105;28;20185;-59
2023/03/20 02:15:22;;;;;;;20.50;15.27;;;;;;;6.92;100.00;-4688.34;5050246;28;20190;-58
2023/03/20 02:17:50;;;;;;;21.17;15.20;;;;;;;6.88;100.00;-5005.41;5089693;27;20726;-59
2023/03/20 02:20:31;;;;;;;18.00;14.87;;;;;;;6.78;100.00;-5005.09;5133376;27;20198;-58
2023/03/20 02:23:38;;;;;;;21.23;14.43;;;;;;;6.96;100.00;-4688.44;5133267;27;20190;-59
2023/03/20 02:26:34;;;;;;;18.67;14.33;;;;;;;6.95;100.00;-4053.97;5133795;27;20183;-59
2023/03/20 02:29:54;;;;;;;24.83;14.27;;;;;;;6.89;100.00;-3736.63;5127513;27;20569;-59
2023/03/20 02:32:46;;;;;;;21.10;14.87;;;;;;;6.87;100.00;-4053.84;5133182;27;20553;-59
2023/03/20 02:35:50;;;;;;;19.83;14.17;;;;;;;6.93;100.00;-5639.81;5133925;27;20202;-59
2023/03/20 02:38:50;;;;;;;20.97;14.57;;;;;;;6.93;100.00;-5005.56;5133796;27;20537;-60
2023/03/20 02:41:25;;;;;;;21.40;14.83;;;;;;;6.83;100.00;-4370.97;5133479;27;20213;-58
2023/03/20 02:44:02;;;;;;;21.83;14.73;;;;;;;6.77;100.00;-4370.84;5133168;27;20190;-63
2023/03/20 02:46:35;;;;;;;21.53;14.97;;;;;;;6.76;100.00;-5956.13;5133405;27;20179;-59
2023/03/20 02:49:12;;;;;;;20.67;15.17;;;;;;;6.70;100.00;-5955.84;5133356;27;20189;-63
2023/03/20 02:51:45;;;;;;;21.33;16.17;;;;;;;6.53;100.00;-6271.88;5133671;27;20557;-58
2023/03/20 02:54:22;;;;;;;22.83;15.87;;;;;;;6.69;100.00;-6906.53;5133323;27;20186;-58
2023/03/20 02:56:58;;;;;;;19.90;14.03;;;;;;;6.78;100.00;-7857.66;5133216;27;20186;-60
2023/03/20 02:59:33;;;;;;;16.87;14.13;;;;;;;6.73;100.00;-7540.47;5132486;27;20202;-59
2023/03/20 03:02:06;;;;;;;19.47;14.63;;;;;;;6.77;100.00;-7540.72;5133459;27;20182;-58
2023/03/20 03:04:36;;;;;;;21.73;15.40;;;;;;;6.79;100.00;-7224.03;5133607;27;20287;-60
2023/03/20 03:07:05;;;;;;;22.37;15.57;;;;;;;6.72;100.00;-7540.41;5132952;27;20191;-58
2023/03/20 03:09:38;;;;;;;28.10;15.97;;;;;;;6.94;100.00;-6908.03;5133286;27;20255;-60
2023/03/20 03:12:12;;;;;;;20.63;14.90;;;;;;;6.79;100.00;-6590.22;5133047;27;20194;-58
2023/03/20 03:14:43;;;;;;;20.37;15.53;;;;;;;6.86;100.00;-6590.63;5133107;27;20182;-58
2023/03/20 03:17:12;;;;;;;19.90;15.70;;;;;;;6.94;100.00;-6908.06;5132901;27;20570;-60
2023/03/20 03:19:45;;;;;;;19.07;15.07;;;;;;;7.09;100.00;-6908.97;5132435;27;20212;-60
2023/03/20 03:22:12;;;;;;;24.87;16.17;;;;;;;7.15;100.00;-6592.22;5133033;27;20189;-59
2023/03/20 03:24:44;;;;;;;25.97;16.07;;;;;;;7.23;100.00;-6592.66;5082074;27;20225;-58
2023/03/20 03:27:19;;;;;;;18.63;14.57;;;;;;;7.21;100.00;-5958.19;5133084;27;20182;-59
2023/03/20 03:29:51;;;;;;;23.27;16.03;;;;;;;7.24;100.00;-6592.72;5132756;27;20182;-58
2023/03/20 03:32:30;;;;;;;18.80;14.60;;;;;;;7.09;100.00;-6591.88;5132794;27;20179;-58
2023/03/20 03:34:58;;;;;;;19.07;13.90;;;;;;;7.17;100.00;-7543.59;5133162;27;20585;-58
2023/03/20 03:37:36;;;;;;;18.20;14.50;;;;;;;7.06;100.00;-8176.75;5132834;27;20239;-59
2023/03/20 03:40:14;;;;;;;23.43;17.23;;;;;;;7.10;100.00;-8494.00;5132991;28;20201;-59
2023/03/20 03:42:49;;;;;;;25.20;16.23;;;;;;;6.93;100.00;-8492.47;5132813;28;20189;-60
2023/03/20 03:45:19;;;;;;;20.87;15.53;;;;;;;7.18;100.00;-9128.50;5132847;28;20192;-59
2023/03/20 03:47:51;;;;;;;24.80;15.23;;;;;;;7.20;100.00;-8177.84;5132494;28;20193;-59
2023/03/20 03:50:23;;;;;;;26.87;16.23;;;;;;;7.23;100.00;-8178.09;5132864;28;20712;-59
2023/03/20 03:52:52;;;;;;;30.57;16.33;;;;;;;7.32;100.00;-8178.84;5132473;28;20190;-60
2023/03/20 03:55:25;;;;;;;21.67;15.10;;;;;;;7.38;100.00;-7227.91;5133005;28;20190;-59
2023/03/20 03:57:57;;;;;;;19.13;15.27;;;;;;;7.28;100.00;-6275.78;5132908;28;20183;-58
2023/03/20 04:00:27;;;;;;;17.70;13.97;;;;;;;7.14;100.00;-6592.16;5132332;28;20186;-59
2023/03/20 04:02:56;;;;;;;21.77;14.63;;;;;;;7.10;100.00;-7543.09;5132647;28;20198;-58
2023/03/20 04:05:26;;;;;;;23.07;15.60;;;;;;;7.16;100.00;-8177.56;5132669;28;20197;-59
2023/03/20 04:07:55;;;;;;;19.00;14.17;;;;;;;7.23;100.00;-8178.09;5132374;28;20197;-59
2023/03/20 04:10:24;;;;;;;24.80;15.03;;;;;;;7.33;100.00;-8178.94;5134704;27;20187;-59
2023/03/20 04:12:51;;;;;;;24.10;14.90;;;;;;;7.33;100.00;-8178.94;5136803;27;20209;-59
2023/03/20 04:15:19;;;;;;;20.83;15.63;;;;;;;7.35;100.00;-7862.00;5136603;27;20193;-58
2023/03/20 04:17:46;;;;;;;26.30;15.70;;;;;;;7.31;100.00;-8178.81;5136263;27;20222;-58
2023/03/20 04:20:14;;;;;;;25.30;14.53;;;;;;;7.28;100.00;-7861.47;5136720;27;20418;-58
2023/03/20 04:22:42;;;;;;;22.77;15.57;;;;;;;7.23;100.00;-8495.09;5136220;27;20182;-60
2023/03/20 04:25:15;;;;;;;24.23;15.93;;;;;;;7.33;100.00;-8178.94;5136512;27;20241;-60
2023/03/20 04:27:44;;;;;;;22.10;15.20;;;;;;;7.45;100.00;-7545.63;5136613;27;20216;-59
2023/03/20 04:30:12;;;;;;;16.93;14.27;;;;;;;7.40;100.00;-7545.25;5136174;27;20179;-59
2023/03/20 04:32:39;;;;;;;21.90;15.87;;;;;;;7.39;100.00;-7862.31;5136141;27;20181;-58
2023/03/20 04:35:07;;;;;;;19.90;14.77;;;;;;;7.42;100.00;-8179.69;5136281;27;20230;-58
2023/03/20 04:37:34;;;;;;;25.47;15.07;;;;;;;7.28;100.00;-7861.50;5135838;27;20187;-58
2023/03/20 04:40:01;;;;;;;19.17;15.37;;;;;;;7.35;100.00;-7544.88;5135759;27;20202;-60
2023/03/20 04:42:27;;;;;;;20.93;14.87;;;;;;;7.40;100.00;-8179.50;5135704;27;20183;-60
2023/03/20 04:44:56;;;;;;;25.67;15.97;;;;;;;7.30;100.00;-8812.75;5135746;27;20186;-59
2023/03/20 04:47:22;;;;;;;22.23;14.97;;;;;;;7.38;100.00;-9447.41;5135637;27;20634;-58
2023/03/20 04:49:49;;;;;;;23.63;15.63;;;;;;;7.26;100.00;-9446.25;5135637;27;20178;-59
2023/03/20 04:52:16;;;;;;;27.93;15.77;;;;;;;7.31;100.00;-9763.69;5135901;27;20620;-59
2023/03/20 04:54:43;;;;;;;22.03;14.97;;;;;;;7.27;100.00;-9446.31;5135575;27;20560;-58
2023/03/20 04:57:10;;;;;;;19.90;14.60;;;;;;;7.29;100.00;-10080.28;5135531;27;20182;-60
2023/03/20 04:59:37;;;;;;;26.00;16.40;;;;;;;7.31;100.00;-10080.50;5135422;27;20695;-59
2023/03/20 05:02:05;;;;;;;24.97;16.03;;;;;;;7.37;100.00;-10081.19;5135859;27;20641;-59
2023/03/20 05:04:32;;;;;;;22.17;14.43;;;;;;;7.45;100.00;-9765.16;5135778;27;20374;-59
2023/03/20 05:06:59;;;;;;;24.93;16.53;;;;;;;7.35;100.00;-9130.16;5135250;27;20179;-59
2023/03/20 05:09:26;;;;;;;25.87;16.03;;;;;;;7.48;100.00;-9131.44;5135166;27;20222;-58
2023/03/20 05:11:53;;;;;;;20.53;14.77;;;;;;;7.40;100.00;-8179.50;5135467;27;20186;-59
2023/03/20 05:14:20;;;;;;;22.63;14.93;;;;;;;7.40;100.00;-8179.50;5135075;27;20194;-58
2023/03/20 05:16:47;;;;;;;29.27;14.83;;;;;;;7.30;100.00;-8495.72;5135616;27;20576;-60
2023/03/20 05:19:15;;;;;;;19.53;14.70;;;;;;;7.29;100.00;-9129.63;5135330;27;20317;-58
2023/03/20 05:21:43;;;;;;;21.13;14.33;;;;;;;7.25;100.00;-8812.28;5134042;27;20589;-59
2023/03/20 05:24:10;;;;;;;21.97;15.43;;;;;;;7.26;100.00;-9446.25;5135376;27;20732;-60
2023/03/20 05:26:37;;;;;;;24.50;15.03;;;;;;;7.24;100.00;-10396.53;5135280;27;20190;-59
2023/03/20 05:29:04;;;;;;;28.10;15.40;;;;;;;7.31;100.00;-11031.03;5135047;27;20186;-58
2023/03/20 05:31:31;;;;;;;24.37;14.30;;;;;;;7.30;100.00;-9446.63;5135201;27;20269;-58
2023/03/20 05:33:57;;;;;;;24.70;16.23;;;;;;;7.11;100.00;-9444.69;5134713;27;20278;-60
2023/03/20 05:36:26;;;;;;;23.90;15.90;;;;;;;7.32;100.00;-10080.63;5134702;27;20193;-60
2023/03/20 05:38:53;;;;;;;21.83;16.33;;;;;;;7.15;100.00;-9445.06;5134937;27;20608;-59
2023/03/20 05:41:21;;;;;;;26.67;15.73;;;;;;;7.13;100.00;-10395.22;5135007;27;20637;-58
2023/03/20 05:43:48;;;;;;;29.83;17.60;;;;;;;7.15;100.00;-11345.56;5135144;27;20187;-60
2023/03/20 05:46:15;;;;;;;32.23;17.47;;;;;;;7.26;100.00;-11347.06;5134634;27;20187;-59
2023/03/20 05:48:42;;;;;;;30.27;16.83;;;;;;;7.32;100.00;-11031.16;5134847;27;20179;-59
2023/03/20 05:51:09;;;;;;;28.97;18.20;;;;;;;7.43;100.00;-10398.78;5134885;27;20660;-59
2023/03/20 05:53:37;;;;;;;33.47;19.93;;;;;;;7.48;100.00;-9765.41;5134591;27;20625;-61
2023/03/20 05:56:05;;;;;;;30.93;18.50;;;;;;;7.46;100.00;-9448.22;5134890;27;20625;-59
2023/03/20 05:58:32;;;;;;;27.70;17.47;;;;;;;7.59;100.00;-9449.63;5134119;27;20225;-59
2023/03/20 06:00:59;;;;;;;28.03;17.33;;;;;;;7.50;100.00;-8180.28;5134290;27;20183;-59
2023/03/20 06:03:26;;;;;;;25.10;17.53;;;;;;;7.49;100.00;-8180.25;5134231;27;20610;-59
2023/03/20 06:05:53;;;;;;;26.53;16.70;;;;;;;7.29;100.00;-8495.63;5134244;27;20187;-58
2023/03/20 06:08:20;;;;;;;26.73;17.47;;;;;;;7.29;100.00;-9129.63;5134076;27;20198;-58
2023/03/20 06:10:50;;;;;;;30.97;19.43;;;;;;;7.34;100.00;-9447.03;5135052;27;20183;-60
2023/03/20 06:13:17;;;;;;;23.27;17.47;;;;;;;7.34;100.00;-8496.06;5134411;27;20501;-59
2023/03/20 06:15:46;;;;;;;24.67;16.80;;;;;;;7.26;100.00;-8178.34;5133949;27;20190;-59
2023/03/20 06:18:12;;;;;;;31.37;15.90;;;;;;;7.19;100.00;-8494.75;5133895;27;20230;-60
2023/03/20 06:20:39;;;;;;;31.40;17.70;;;;;;;7.19;100.00;-9128.59;5133797;27;20209;-59
2023/03/20 06:23:06;;;;;;;29.93;16.83;;;;;;;6.94;100.00;-9759.63;5134148;27;20630;-59
2023/03/20 06:25:33;;;;;;;27.53;17.33;;;;;;;7.08;100.00;-10394.69;5133677;27;20230;-59
2023/03/20 06:28:01;;;;;;;24.53;16.27;;;;;;;7.08;100.00;-10711.31;5133644;27;20269;-60
2023/03/20 06:30:28;;;;;;;24.07;17.53;;;;;;;7.25;100.00;-10079.88;5133561;27;20179;-59
2023/03/20 06:32:55;;;;;;;32.23;18.10;;;;;;;7.55;100.00;-9449.19;5133379;27;20179;-59
2023/03/20 06:35:22;;;;;;;29.03;18.23;;;;;;;7.36;100.00;-8813.28;5133559;27;20557;-59
2023/03/20 06:37:49;;;;;;;25.90;18.40;;;;;;;7.47;100.00;-10082.34;5133418;27;20195;-59
2023/03/20 06:40:16;;;;;;;34.27;17.23;;;;;;;7.63;100.00;-9767.09;5115270;27;20634;-59
2023/03/20 06:42:43;;;;;;;31.77;18.43;;;;;;;7.68;100.00;-9133.41;5133403;27;20193;-60
2023/03/20 06:45:12;;;;;;;27.40;18.53;;;;;;;7.68;100.00;-7229.94;5133237;27;20637;-60
2023/03/20 06:47:39;;;;;;;26.80;18.67;;;;;;;7.74;100.00;-7230.38;5133371;27;20212;-59
2023/03/20 06:50:07;;;;;;;35.53;20.17;;;;;;;7.69;100.00;-6912.66;5133300;27;20193;-61
2023/03/20 06:52:35;;;;;;;36.47;21.50;;;;;;;7.81;100.00;-6913.41;5133263;27;20198;-59
2023/03/20 06:55:04;;;;;;;38.77;21.60;;;;;;;7.94;100.00;-6914.16;5133161;27;20179;-62
2023/03/20 06:57:31;;;;;;;31.17;20.63;;;;;;;7.95;100.00;-4055.47;5133204;27;20183;-60
2023/03/20 06:59:58;;;;;;;42.10;22.13;;;;;;;7.98;100.00;-2784.09;5132691;27;20279;-59
2023/03/20 07:02:26;;;;;;;39.20;19.70;;;;;;;8.03;100.00;-3102.00;5132528;27;20197;-60
2023/03/20 07:04:53;;;;;;;29.93;18.23;;;;;;;8.06;100.00;-2784.03;5133232;27;20643;-60
2023/03/20 07:07:20;;;;;;;30.23;17.73;;;;;;;8.09;100.00;-1511.88;5132608;27;20186;-59
2023/03/20 07:09:47;;;;;;;32.87;18.80;;;;;;;8.14;100.00;-239.00;5132625;27;20189;-63
2023/03/20 07:12:18;;;;;;;32.20;18.73;;;;;;;8.07;100.00;715.44;5132897;27;20186;-59
2023/03/20 07:14:46;;;;;;;26.33;19.33;;;;;;;8.04;100.00;397.00;5115209;27;20538;-59
2023/03/20 07:17:13;;;;;;;34.60;19.83;;;;;;;7.99;100.00;-239.69;5132209;27;20218;-61
2023/03/20 07:19:41;;;;;;;31.03;18.97;;;;;;;8.14;100.00;79.28;5132235;27;20324;-60
2023/03/20 07:22:17;;;;;;;36.93;17.80;;;;;;;8.07;100.00;1670.47;5132470;27;20190;-60
2023/03/20 07:24:44;;;;;;;30.27;18.17;;;;;;;8.06;100.00;1352.03;5132299;27;20189;-60
2023/03/20 07:27:12;;;;;;;28.43;19.00;;;;;;;8.24;100.00;1671.84;5132198;27;20187;-60
2023/03/20 07:29:38;;;;;;;31.97;18.67;;;;;;;8.25;100.00;3264.78;5132580;27;20471;-59
2023/03/20 07:32:05;;;;;;;35.37;19.83;;;;;;;8.41;100.00;2947.69;5132140;27;20182;-60
2023/03/20 07:34:32;;;;;;;25.47;17.17;;;;;;;8.51;100.00;4861.72;5132592;27;20556;-60
2023/03/20 07:37:01;;;;;;;26.57;16.93;;;;;;;8.48;100.00;6137.25;5132450;27;20178;-60
2023/03/20 07:39:28;;;;;;;23.97;17.20;;;;;;;8.51;100.00;6775.81;5132449;27;20554;-59
2023/03/20 07:41:55;;;;;;;26.57;17.20;;;;;;;8.41;100.00;7731.63;5132284;28;20182;-59
2023/03/20 07:44:22;;;;;;;22.77;16.67;;;;;;;8.45;100.00;10286.66;5131668;27;20187;-61
2023/03/20 07:46:51;;;;;;;24.63;17.27;;;;;;;8.11;100.00;10598.56;5132443;28;20273;-59
2023/03/20 07:49:19;;;;;;;23.90;18.50;;;;;;;8.40;100.00;9646.91;5131420;28;20199;-59
2023/03/20 07:51:46;;;;;;;30.00;18.73;;;;;;;8.53;100.00;9330.25;5132275;28;20677;-59
2023/03/20 07:54:15;;;;;;;27.27;18.60;;;;;;;8.59;100.00;9650.78;5131936;28;20190;-62
2023/03/20 07:56:42;;;;;;;35.17;19.13;;;;;;;8.71;100.00;12210.28;5113811;28;20198;-61
2023/03/20 07:59:10;;;;;;;38.63;19.37;;;;;;;8.64;100.00;16367.56;5131952;28;20191;-59
2023/03/20 08:01:37;;;;;;;32.37;18.10;;;;;;;8.71;100.00;16689.97;5143496;27;20193;-60
2023/03/20 08:04:04;;;;;;;28.37;18.43;;;;;;;8.88;100.00;19578.81;5144515;27;20217;-59
2023/03/20 08:06:31;;;;;;;25.53;17.37;;;;;;;9.03;100.00;21187.91;5131756;28;20187;-60
2023/03/20 08:08:58;;;;;;;29.63;18.30;;;;;;;9.24;100.00;22801.13;5131496;28;20187;-61
2023/03/20 08:11:26;;;;;;;22.43;18.13;;;;;;;9.20;100.00;33732.19;5132094;28;20273;-60
2023/03/20 08:13:53;;;;;;;28.10;18.43;;;;;;;9.18;100.00;36308.53;5131507;28;20655;-60
2023/03/20 08:16:20;;;;;;;21.97;17.50;;;;;;;9.30;100.00;35993.59;5131588;28;20526;-59
2023/03/20 08:18:49;;;;;;;27.97;17.67;;;;;;;9.40;100.00;38257.59;5029359;28;20232;-58
2023/03/20 08:21:16;;;;;;;27.20;20.40;;;;;;;9.27;100.00;41476.16;5031277;28;20202;-60
2023/03/20 08:23:43;;;;;;;25.83;17.33;;;;;;;9.51;100.00;43432.22;5031438;28;20219;-60
2023/03/20 08:26:10;;;;;;;23.47;17.10;;;;;;;9.74;100.00;45712.88;5031294;28;20186;-60
2023/03/20 08:28:41;;;;;;;25.97;18.43;;;;;;;9.72;100.00;55430.66;5044761;28;20580;-60
2023/03/20 08:31:09;;;;;;;21.77;17.17;;;;;;;9.44;100.00;62870.41;5047985;28;20556;-60
2023/03/20 08:33:36;;;;;;;23.83;17.40;;;;;;;9.51;100.00;53789.22;5047484;28;20197;-60
2023/03/20 08:36:03;;;;;;;32.40;17.57;;;;;;;9.65;100.00;51857.47;5047548;28;20217;-59
2023/03/20 08:38:30;;;;;;;23.53;18.00;;;;;;;9.48;100.00;57354.44;5047800;28;20649;-59
2023/03/20 08:40:57;;;;;;;22.37;16.37;;;;;;;9.74;100.00;59977.34;5047329;28;20556;-60
2023/03/20 08:43:24;;;;;;;21.73;17.60;;;;;;;9.67;100.00;55425.38;5047524;28;20186;-59
2023/03/20 08:45:52;;;;;;;19.30;16.93;;;;;;;9.63;100.00;58018.06;5039128;28;20197;-59
2023/03/20 08:48:19;;;;;;;17.87;15.80;;;;;;;9.27;100.00;49233.72;5038674;28;20190;-59
2023/03/20 08:50:46;;;;;;;23.43;16.83;;;;;;;9.40;100.00;44070.09;5048218;28;20189;-59
2023/03/20 08:53:13;;;;;;;19.23;16.43;;;;;;;9.50;100.00;48605.72;5047714;28;20182;-60
2023/03/20 08:55:47;;;;;;;18.17;15.60;;;;;;;9.64;100.00;54774.25;5047838;28;20224;-60
2023/03/20 08:58:15;;;;;;;22.43;15.43;;;;;;;9.62;100.00;56718.81;5050708;28;20185;-60
2023/03/20 09:00:42;;;;;;;23.87;16.33;;;;;;;9.39;100.00;55075.13;5000591;28;20724;-59
2023/03/20 09:03:14;;;;;;;20.77;16.43;;;;;;;9.53;100.00;53142.81;5043710;27;20206;-59
2023/03/20 09:05:43;;;;;;;20.17;15.90;;;;;;;9.48;100.00;53462.75;5038979;28;20708;-59
2023/03/20 09:08:10;;;;;;;21.63;16.10;;;;;;;9.65;100.00;54775.19;5039711;28;20185;-59
2023/03/20 09:10:37;;;;;;;18.83;15.67;;;;;;;10.07;100.00;68799.41;5040592;28;20198;-61
2023/03/20 09:13:06;;;;;;;25.07;16.10;;;;;;;10.66;100.00;100657.72;5038685;28;20186;-59
2023/03/20 09:15:34;;;;;;;19.90;17.23;;;;;;;10.71;100.00;144573.16;5039504;28;20181;-59
2023/03/20 09:18:02;;;;;;;22.47;16.53;;;;;;;11.43;100.00;148914.56;5078630;27;20226;-60
2023/03/20 09:20:30;;;;;;;25.13;16.20;;;;;;;12.09;100.00;149077.84;5119063;27;20203;-60
2023/03/20 09:22:57;;;;;;;22.80;16.33;;;;;;;12.41;100.00;149157.56;5129366;27;20269;-59
2023/03/20 09:25:25;;;;;;;18.07;16.17;;;;;;;12.44;100.00;149165.13;5125946;27;20184;-60
2023/03/20 09:27:54;;;;;;;17.67;15.77;;;;;;;12.34;100.00;149142.41;5120684;27;20206;-59
2023/03/20 09:30:21;;;;;;;19.87;15.03;;;;;;;13.21;100.00;149358.94;5128263;27;20191;-60
2023/03/20 09:32:48;;;;;;;17.43;14.13;;;;;;;14.31;100.00;149633.91;5119178;27;20186;-59
2023/03/20 09:35:15;;;;;;;21.50;15.30;;;;;;;14.37;100.00;149649.19;5127033;27;20201;-60
2023/03/20 09:37:43;;;;;;;17.70;15.07;;;;;;;15.37;100.00;149901.56;5133209;27;20179;-60
2023/03/20 09:40:22;;;;;;;18.90;15.43;;;;;;;15.49;100.00;149932.00;5115871;27;20199;-60
2023/03/20 09:42:57;;;;;;;24.70;15.33;;;;;;;13.83;100.00;149514.81;5131111;27;20182;-61
2023/03/20 09:45:40;;;;;;;22.03;15.27;;;;;;;13.90;100.00;149532.53;5131470;27;20622;-59
2023/03/20 09:48:15;;;;;;;16.93;15.17;;;;;;;14.28;100.00;149627.59;5132598;27;20271;-59
2023/03/20 09:50:55;;;;;;;18.87;14.87;;;;;;;14.83;100.00;149764.56;5132566;27;20182;-60
2023/03/20 09:53:30;;;;;;;16.63;14.73;;;;;;;14.91;100.00;149786.13;5133245;27;20274;-60
2023/03/20 09:55:59;;;;;;;18.70;16.20;;;;;;;15.21;100.00;149859.72;5129842;27;20190;-60
2023/03/20 09:58:32;;;;;;;18.37;14.93;;;;;;;15.45;100.00;149920.59;5133306;27;20183;-60
2023/03/20 10:01:03;;;;;;;15.27;13.83;;;;;;;16.42;100.00;150164.38;5114563;27;20267;-60
2023/03/20 10:03:39;;;;;;;16.83;15.13;;;;;;;16.51;100.00;150187.22;5133468;27;20243;-62
2023/03/20 10:06:12;;;;;;;15.20;13.53;;;;;;;17.24;100.00;150370.16;5130922;27;20196;-60
2023/03/20 10:08:41;;;;;;;16.23;13.33;;;;;;;16.51;100.00;150187.22;5132977;27;20183;-60
2023/03/20 10:11:42;;;;;;;13.83;12.53;;;;;;;16.86;100.00;150276.19;5133808;27;20182;-60
2023/03/20 10:14:20;;;;;;;14.50;13.10;;;;;;;15.16;100.00;149847.00;5131948;27;20215;-60
2023/03/20 10:17:04;;;;;;;14.40;13.10;;;;;;;14.30;100.00;149631.41;5133341;27;20186;-60
2023/03/20 10:19:35;;;;;;;16.33;12.70;;;;;;;15.64;100.00;149968.88;5054425;27;20207;-60
2023/03/20 10:22:11;;;;;;;15.73;11.60;;;;;;;15.28;100.00;149878.72;5049794;28;20186;-59
2023/03/20 10:24:44;;;;;;;15.67;11.67;;;;;;;15.85;100.00;150020.91;5049807;28;20616;-60
2023/03/20 10:27:22;;;;;;;12.87;11.60;;;;;;;16.40;100.00;150160.56;5049322;28;20305;-61
2023/03/20 10:29:56;;;;;;;16.77;11.77;;;;;;;16.38;100.00;150155.47;5049271;28;20210;-59
2023/03/20 10:32:30;;;;;;;11.60;10.37;;;;;;;16.23;100.00;150116.13;5049738;28;20624;-59
2023/03/20 10:35:12;;;;;;;15.17;10.80;;;;;;;16.27;100.00;150126.28;5049176;28;20200;-60
2023/03/20 10:37:55;;;;;;;11.20;10.10;;;;;;;16.59;100.00;150207.56;5049355;28;20276;-62
2023/03/20 10:40:30;;;;;;;14.80;11.10;;;;;;;16.57;100.00;150202.50;5049426;28;20209;-61
2023/03/20 10:43:01;;;;;;;18.20;11.10;;;;;;;16.42;100.00;150165.63;5049207;28;20214;-60
2023/03/20 10:45:36;;;;;;;11.00;9.93;;;;;;;16.40;100.00;150160.56;5049229;28;20190;-61
2023/03/20 10:48:12;;;;;;;16.13;10.60;;;;;;;16.68;100.00;150230.44;5049462;28;20193;-58
2023/03/20 10:50:44;;;;;;;12.67;9.07;;;;;;;15.90;100.00;150034.88;5049341;28;20560;-59
2023/03/20 10:53:23;;;;;;;10.73;9.37;;;;;;;15.37;100.00;149901.56;5049379;28;20559;-58
2023/03/20 10:55:57;;;;;;;11.23;9.73;;;;;;;15.34;100.00;149893.97;5049346;28;20651;-60
2023/03/20 10:58:28;;;;;;;9.40;8.17;;;;;;;14.62;100.00;149712.59;5049080;28;20181;-60
2023/03/20 11:00:57;;;;;;;19.97;9.77;;;;;;;15.04;100.00;149819.13;5048998;28;20214;-59
2023/03/20 11:03:26;;;;;;;14.77;9.40;;;;;;;15.30;100.00;149883.81;5049792;28;20201;-60
2023/03/20 11:05:57;;;;;;;14.60;9.90;;;;;;;15.84;100.00;150018.38;5048950;28;20190;-59
2023/03/20 11:08:29;;;;;;;16.83;9.70;;;;;;;15.57;100.00;149951.13;5048524;28;20213;-59
2023/03/20 11:11:05;;;;;;;16.80;9.80;;;;;;;16.96;100.00;150299.03;5048775;28;20182;-60
2023/03/20 11:13:34;;;;;;;10.50;9.10;;;;;;;15.16;100.00;149848.28;5048557;28;20177;-59
2023/03/20 11:16:19;;;;;;;10.77;9.17;;;;;;;13.81;100.00;149509.72;5049191;28;20181;-58
2023/03/20 11:18:48;;;;;;;12.50;9.37;;;;;;;13.35;100.00;149393.16;5048070;28;20714;-61
2023/03/20 11:21:19;;;;;;;14.33;9.73;;;;;;;12.59;100.00;149203.16;5048077;28;20216;-61
2023/03/20 11:23:46;;;;;;;26.33;10.67;;;;;;;11.70;100.00;148981.63;5048384;28;20195;-59
2023/03/20 11:26:17;;;;;;;27.93;9.67;;;;;;;11.75;100.00;148994.28;5048229;28;20334;-59
2023/03/20 11:28:50;;;;;;;15.43;9.63;;;;;;;11.58;100.00;148950.00;5048273;28;20197;-59